sensor_id;sensor_type;location;lat;lon;timestamp;pressure;altitude;pressure_sealevel;temperature;humidity
60417;BME280;46263;44.726;10.396;2023-07-30T00:01:15;100107.22;;;29.92;49.20
60417;BME280;46263;44.726;10.396;2023-07-30T00:03:41;100089.78;;;29.88;49.58
60417;BME280;46263;44.726;10.396;2023-07-30T00:06:06;100086.16;;;29.87;49.33
60417;BME280;46263;44.726;10.396;2023-07-30T00:08:32;100082.56;;;29.87;49.52
60417;BME280;46263;44.726;10.396;2023-07-30T00:10:57;100082.38;;;29.83;49.80
60417;BME280;46263;44.726;10.396;2023-07-30T00:13:24;100099.97;;;29.91;50.07
60417;BME280;46263;44.726;10.396;2023-07-30T00:15:50;100114.09;;;29.83;49.66
60417;BME280;46263;44.726;10.396;2023-07-30T00:18:16;100125.72;;;29.85;49.64
60417;BME280;46263;44.726;10.396;2023-07-30T00:20:42;100135.78;;;29.84;50.18
60417;BME280;46263;44.726;10.396;2023-07-30T00:23:07;100146.91;;;29.74;51.64
60417;BME280;46263;44.726;10.396;2023-07-30T00:25:33;100172.28;;;29.77;51.71
60417;BME280;46263;44.726;10.396;2023-07-30T00:27:58;100175.91;;;29.41;51.88
60417;BME280;46263;44.726;10.396;2023-07-30T00:30:24;100176.63;;;29.24;50.26
60417;BME280;46263;44.726;10.396;2023-07-30T00:32:49;100180.44;;;29.11;50.10
60417;BME280;46263;44.726;10.396;2023-07-30T00:35:15;100182.81;;;29.16;50.05
60417;BME280;46263;44.726;10.396;2023-07-30T00:37:40;100185.69;;;29.16;50.09
60417;BME280;46263;44.726;10.396;2023-07-30T00:40:06;100189.25;;;29.15;50.16
60417;BME280;46263;44.726;10.396;2023-07-30T00:42:32;100187.59;;;29.10;50.20
60417;BME280;46263;44.726;10.396;2023-07-30T00:44:57;100182.59;;;29.11;49.90
60417;BME280;46263;44.726;10.396;2023-07-30T00:47:23;100184.88;;;29.14;49.90
60417;BME280;46263;44.726;10.396;2023-07-30T00:49:49;100206.00;;;29.03;49.92
60417;BME280;46263;44.726;10.396;2023-07-30T00:52:19;100205.91;;;29.01;50.07
60417;BME280;46263;44.726;10.396;2023-07-30T00:54:45;100205.53;;;28.91;50.13
60417;BME280;46263;44.726;10.396;2023-07-30T00:57:11;100208.66;;;28.97;49.91
60417;BME280;46263;44.726;10.396;2023-07-30T00:59:37;100205.00;;;28.79;49.46
60417;BME280;46263;44.726;10.396;2023-07-30T01:02:04;100201.50;;;28.65;49.39
60417;BME280;46263;44.726;10.396;2023-07-30T01:04:30;100214.31;;;28.62;49.52
60417;BME280;46263;44.726;10.396;2023-07-30T01:06:55;100198.19;;;28.55;49.91
60417;BME280;46263;44.726;10.396;2023-07-30T01:09:22;100181.88;;;28.44;50.27
60417;BME280;46263;44.726;10.396;2023-07-30T01:11:48;100187.28;;;28.36;50.50
60417;BME280;46263;44.726;10.396;2023-07-30T01:14:14;100192.44;;;28.40;50.56
60417;BME280;46263;44.726;10.396;2023-07-30T01:16:40;100185.03;;;28.50;50.56
60417;BME280;46263;44.726;10.396;2023-07-30T01:19:06;100198.97;;;28.40;51.15
60417;BME280;46263;44.726;10.396;2023-07-30T01:21:35;100209.00;;;28.39;51.28
60417;BME280;46263;44.726;10.396;2023-07-30T01:24:01;100199.69;;;28.41;51.39
60417;BME280;46263;44.726;10.396;2023-07-30T01:26:46;100202.28;;;28.50;51.17
60417;BME280;46263;44.726;10.396;2023-07-30T01:29:24;100189.19;;;28.47;51.54
60417;BME280;46263;44.726;10.396;2023-07-30T01:31:56;100188.47;;;28.47;51.31
60417;BME280;46263;44.726;10.396;2023-07-30T01:34:27;100191.84;;;28.26;51.79
60417;BME280;46263;44.726;10.396;2023-07-30T01:36:53;100181.34;;;28.32;51.68
60417;BME280;46263;44.726;10.396;2023-07-30T01:39:20;100188.59;;;28.33;52.01
60417;BME280;46263;44.726;10.396;2023-07-30T01:41:48;100187.31;;;28.21;52.20
60417;BME280;46263;44.726;10.396;2023-07-30T01:44:14;100182.16;;;28.20;52.27
60417;BME280;46263;44.726;10.396;2023-07-30T01:46:39;100161.50;;;28.23;52.04
60417;BME280;46263;44.726;10.396;2023-07-30T01:49:05;100167.91;;;28.22;52.20
60417;BME280;46263;44.726;10.396;2023-07-30T01:51:30;100171.78;;;28.13;52.52
60417;BME280;46263;44.726;10.396;2023-07-30T01:53:55;100166.34;;;28.19;52.40
60417;BME280;46263;44.726;10.396;2023-07-30T01:56:21;100163.91;;;28.28;52.31
60417;BME280;46263;44.726;10.396;2023-07-30T01:58:46;100157.13;;;28.37;52.48
60417;BME280;46263;44.726;10.396;2023-07-30T02:01:12;100166.63;;;28.25;52.41
60417;BME280;46263;44.726;10.396;2023-07-30T02:03:37;100169.69;;;28.13;52.92
60417;BME280;46263;44.726;10.396;2023-07-30T02:06:03;100165.41;;;27.99;53.55
60417;BME280;46263;44.726;10.396;2023-07-30T02:08:28;100169.03;;;27.99;53.63
60417;BME280;46263;44.726;10.396;2023-07-30T02:10:55;100159.88;;;28.03;53.68
60417;BME280;46263;44.726;10.396;2023-07-30T02:13:21;100154.47;;;28.11;53.70
60417;BME280;46263;44.726;10.396;2023-07-30T02:15:46;100165.78;;;28.07;54.18
60417;BME280;46263;44.726;10.396;2023-07-30T02:18:12;100165.63;;;27.87;54.79
60417;BME280;46263;44.726;10.396;2023-07-30T02:20:37;100165.16;;;27.93;54.56
60417;BME280;46263;44.726;10.396;2023-07-30T02:23:03;100163.50;;;27.72;55.29
60417;BME280;46263;44.726;10.396;2023-07-30T02:25:28;100151.16;;;27.70;55.76
60417;BME280;46263;44.726;10.396;2023-07-30T02:27:53;100151.69;;;27.66;56.01
60417;BME280;46263;44.726;10.396;2023-07-30T02:30:19;100155.59;;;27.73;55.96
60417;BME280;46263;44.726;10.396;2023-07-30T02:32:44;100146.88;;;27.86;55.50
60417;BME280;46263;44.726;10.396;2023-07-30T02:35:10;100152.09;;;27.74;55.89
60417;BME280;46263;44.726;10.396;2023-07-30T02:37:35;100140.56;;;27.59;56.06
60417;BME280;46263;44.726;10.396;2023-07-30T02:40:01;100133.06;;;27.52;56.32
60417;BME280;46263;44.726;10.396;2023-07-30T02:42:30;100143.91;;;27.53;56.83
60417;BME280;46263;44.726;10.396;2023-07-30T02:44:55;100151.69;;;27.51;56.46
60417;BME280;46263;44.726;10.396;2023-07-30T02:47:21;100147.78;;;27.60;56.11
60417;BME280;46263;44.726;10.396;2023-07-30T02:49:46;100145.41;;;27.70;55.95
60417;BME280;46263;44.726;10.396;2023-07-30T02:52:12;100133.94;;;27.70;56.33
60417;BME280;46263;44.726;10.396;2023-07-30T02:54:37;100141.59;;;27.81;56.40
60417;BME280;46263;44.726;10.396;2023-07-30T02:57:03;100134.19;;;27.76;55.86
60417;BME280;46263;44.726;10.396;2023-07-30T02:59:28;100130.97;;;27.68;56.30
60417;BME280;46263;44.726;10.396;2023-07-30T03:01:54;100126.09;;;27.57;56.24
60417;BME280;46263;44.726;10.396;2023-07-30T03:04:19;100124.63;;;27.56;56.71
60417;BME280;46263;44.726;10.396;2023-07-30T03:06:45;100127.03;;;27.46;57.04
60417;BME280;46263;44.726;10.396;2023-07-30T03:09:10;100126.09;;;27.57;56.82
60417;BME280;46263;44.726;10.396;2023-07-30T03:11:35;100131.59;;;27.66;56.29
60417;BME280;46263;44.726;10.396;2023-07-30T03:14:01;100136.88;;;27.72;57.13
60417;BME280;46263;44.726;10.396;2023-07-30T03:16:26;100129.94;;;27.77;56.83
60417;BME280;46263;44.726;10.396;2023-07-30T03:18:52;100143.91;;;27.84;56.61
60417;BME280;46263;44.726;10.396;2023-07-30T03:21:17;100137.44;;;27.84;56.81
60417;BME280;46263;44.726;10.396;2023-07-30T03:23:43;100139.56;;;27.83;56.69
60417;BME280;46263;44.726;10.396;2023-07-30T03:26:10;100138.72;;;27.81;56.32
60417;BME280;46263;44.726;10.396;2023-07-30T03:28:35;100133.16;;;27.85;56.01
60417;BME280;46263;44.726;10.396;2023-07-30T03:31:01;100131.69;;;27.84;55.91
60417;BME280;46263;44.726;10.396;2023-07-30T03:33:26;100135.13;;;27.80;56.14
60417;BME280;46263;44.726;10.396;2023-07-30T03:35:52;100139.69;;;27.70;56.49
60417;BME280;46263;44.726;10.396;2023-07-30T03:38:17;100143.94;;;27.69;56.60
60417;BME280;46263;44.726;10.396;2023-07-30T03:40:43;100132.41;;;27.53;56.96
60417;BME280;46263;44.726;10.396;2023-07-30T03:43:08;100133.44;;;27.60;56.86
60417;BME280;46263;44.726;10.396;2023-07-30T03:45:34;100140.75;;;27.63;56.93
60417;BME280;46263;44.726;10.396;2023-07-30T03:47:59;100131.69;;;27.68;57.46
60417;BME280;46263;44.726;10.396;2023-07-30T03:50:25;100123.72;;;27.67;57.84
60417;BME280;46263;44.726;10.396;2023-07-30T03:52:50;100120.28;;;27.70;57.90
60417;BME280;46263;44.726;10.396;2023-07-30T03:55:16;100122.50;;;27.72;57.70
60417;BME280;46263;44.726;10.396;2023-07-30T03:57:41;100123.06;;;27.68;57.51
60417;BME280;46263;44.726;10.396;2023-07-30T04:00:07;100116.50;;;27.66;57.32
60417;BME280;46263;44.726;10.396;2023-07-30T04:02:32;100110.34;;;27.58;57.45
60417;BME280;46263;44.726;10.396;2023-07-30T04:04:58;100113.22;;;27.42;57.69
60417;BME280;46263;44.726;10.396;2023-07-30T04:07:23;100112.47;;;27.42;58.09
60417;BME280;46263;44.726;10.396;2023-07-30T04:09:49;100098.84;;;27.42;57.66
60417;BME280;46263;44.726;10.396;2023-07-30T04:12:14;100095.72;;;27.52;57.68
60417;BME280;46263;44.726;10.396;2023-07-30T04:14:40;100096.63;;;27.41;58.27
60417;BME280;46263;44.726;10.396;2023-07-30T04:17:05;100097.09;;;27.20;58.85
60417;BME280;46263;44.726;10.396;2023-07-30T04:19:30;100094.56;;;27.13;59.28
60417;BME280;46263;44.726;10.396;2023-07-30T04:21:56;100097.00;;;27.18;59.10
60417;BME280;46263;44.726;10.396;2023-07-30T04:24:21;100089.75;;;27.17;59.08
60417;BME280;46263;44.726;10.396;2023-07-30T04:26:47;100096.09;;;27.29;59.00
60417;BME280;46263;44.726;10.396;2023-07-30T04:29:12;100093.28;;;27.31;58.96
60417;BME280;46263;44.726;10.396;2023-07-30T04:31:39;100098.44;;;27.04;59.82
60417;BME280;46263;44.726;10.396;2023-07-30T04:34:04;100099.59;;;27.12;59.75
60417;BME280;46263;44.726;10.396;2023-07-30T04:36:30;100097.28;;;26.95;60.57
60417;BME280;46263;44.726;10.396;2023-07-30T04:38:55;100096.75;;;26.99;60.26
60417;BME280;46263;44.726;10.396;2023-07-30T04:41:21;100095.13;;;27.09;60.03
60417;BME280;46263;44.726;10.396;2023-07-30T04:43:47;100100.88;;;27.09;60.25
60417;BME280;46263;44.726;10.396;2023-07-30T04:46:12;100092.38;;;26.98;60.56
60417;BME280;46263;44.726;10.396;2023-07-30T04:48:38;100097.16;;;27.07;60.61
60417;BME280;46263;44.726;10.396;2023-07-30T04:51:03;100095.50;;;27.17;59.88
60417;BME280;46263;44.726;10.396;2023-07-30T04:53:29;100106.88;;;27.15;60.35
60417;BME280;46263;44.726;10.396;2023-07-30T04:55:57;100099.75;;;27.16;60.28
60417;BME280;46263;44.726;10.396;2023-07-30T04:58:23;100104.38;;;27.08;60.76
60417;BME280;46263;44.726;10.396;2023-07-30T05:00:49;100106.31;;;27.03;60.94
60417;BME280;46263;44.726;10.396;2023-07-30T05:03:14;100111.97;;;27.01;61.17
60417;BME280;46263;44.726;10.396;2023-07-30T05:05:40;100108.44;;;27.03;60.96
60417;BME280;46263;44.726;10.396;2023-07-30T05:08:06;100113.28;;;27.14;60.57
60417;BME280;46263;44.726;10.396;2023-07-30T05:10:32;100114.94;;;27.19;60.57
60417;BME280;46263;44.726;10.396;2023-07-30T05:12:57;100109.69;;;27.29;60.28
60417;BME280;46263;44.726;10.396;2023-07-30T05:15:22;100114.63;;;27.42;59.95
60417;BME280;46263;44.726;10.396;2023-07-30T05:17:48;100115.06;;;27.36;60.39
60417;BME280;46263;44.726;10.396;2023-07-30T05:20:13;100111.44;;;27.36;60.16
60417;BME280;46263;44.726;10.396;2023-07-30T05:22:39;100120.63;;;27.32;60.33
60417;BME280;46263;44.726;10.396;2023-07-30T05:25:05;100119.34;;;27.35;60.61
60417;BME280;46263;44.726;10.396;2023-07-30T05:27:30;100123.13;;;27.55;59.84
60417;BME280;46263;44.726;10.396;2023-07-30T05:29:57;100116.84;;;27.43;60.50
60417;BME280;46263;44.726;10.396;2023-07-30T05:32:22;100129.44;;;27.51;60.24
60417;BME280;46263;44.726;10.396;2023-07-30T05:34:48;100130.56;;;27.60;59.71
60417;BME280;46263;44.726;10.396;2023-07-30T05:37:13;100143.75;;;27.65;59.58
60417;BME280;46263;44.726;10.396;2023-07-30T05:39:39;100136.97;;;27.74;59.13
60417;BME280;46263;44.726;10.396;2023-07-30T05:42:04;100150.78;;;27.77;59.21
60417;BME280;46263;44.726;10.396;2023-07-30T05:44:30;100162.00;;;27.71;59.52
60417;BME280;46263;44.726;10.396;2023-07-30T05:46:55;100156.53;;;27.77;59.73
60417;BME280;46263;44.726;10.396;2023-07-30T05:49:21;100166.72;;;27.80;59.77
60417;BME280;46263;44.726;10.396;2023-07-30T05:51:46;100158.00;;;27.78;59.21
60417;BME280;46263;44.726;10.396;2023-07-30T05:54:12;100160.59;;;27.88;59.41
60417;BME280;46263;44.726;10.396;2023-07-30T05:56:38;100172.03;;;27.86;60.02
60417;BME280;46263;44.726;10.396;2023-07-30T05:59:03;100168.38;;;27.85;59.91
60417;BME280;46263;44.726;10.396;2023-07-30T06:01:29;100185.91;;;27.91;59.57
60417;BME280;46263;44.726;10.396;2023-07-30T06:03:54;100179.44;;;27.91;59.91
60417;BME280;46263;44.726;10.396;2023-07-30T06:06:20;100179.69;;;27.97;59.66
60417;BME280;46263;44.726;10.396;2023-07-30T06:08:52;100179.22;;;28.02;58.76
60417;BME280;46263;44.726;10.396;2023-07-30T06:11:18;100179.78;;;27.99;58.67
60417;BME280;46263;44.726;10.396;2023-07-30T06:13:43;100192.56;;;27.96;58.98
60417;BME280;46263;44.726;10.396;2023-07-30T06:16:09;100193.59;;;28.02;58.45
60417;BME280;46263;44.726;10.396;2023-07-30T06:18:35;100191.09;;;27.95;58.63
60417;BME280;46263;44.726;10.396;2023-07-30T06:21:01;100199.25;;;28.00;58.57
60417;BME280;46263;44.726;10.396;2023-07-30T06:23:26;100189.69;;;27.96;58.28
60417;BME280;46263;44.726;10.396;2023-07-30T06:25:52;100187.19;;;28.04;58.38
60417;BME280;46263;44.726;10.396;2023-07-30T06:28:17;100185.44;;;27.97;58.44
60417;BME280;46263;44.726;10.396;2023-07-30T06:30:43;100188.22;;;28.10;58.30
60417;BME280;46263;44.726;10.396;2023-07-30T06:33:08;100196.28;;;28.14;58.38
60417;BME280;46263;44.726;10.396;2023-07-30T06:35:33;100202.13;;;28.16;58.09
60417;BME280;46263;44.726;10.396;2023-07-30T06:37:59;100199.25;;;28.16;58.09
60417;BME280;46263;44.726;10.396;2023-07-30T06:40:25;100201.97;;;28.27;58.00
60417;BME280;46263;44.726;10.396;2023-07-30T06:42:50;100206.22;;;28.26;57.90
60417;BME280;46263;44.726;10.396;2023-07-30T06:45:16;100198.50;;;28.30;58.29
60417;BME280;46263;44.726;10.396;2023-07-30T06:47:41;100199.09;;;28.27;58.34
60417;BME280;46263;44.726;10.396;2023-07-30T06:50:07;100202.53;;;28.24;57.76
60417;BME280;46263;44.726;10.396;2023-07-30T06:52:34;100196.94;;;28.27;57.56
60417;BME280;46263;44.726;10.396;2023-07-30T06:55:01;100200.09;;;28.33;57.65
60417;BME280;46263;44.726;10.396;2023-07-30T06:57:28;100200.81;;;28.34;57.30
60417;BME280;46263;44.726;10.396;2023-07-30T06:59:54;100199.19;;;28.29;57.39
60417;BME280;46263;44.726;10.396;2023-07-30T07:02:19;100202.63;;;28.26;57.72
60417;BME280;46263;44.726;10.396;2023-07-30T07:04:45;100198.34;;;28.27;57.66
60417;BME280;46263;44.726;10.396;2023-07-30T07:07:10;100196.94;;;28.27;57.73
60417;BME280;46263;44.726;10.396;2023-07-30T07:09:36;100201.84;;;28.40;57.49
60417;BME280;46263;44.726;10.396;2023-07-30T07:12:01;100199.13;;;28.44;58.00
60417;BME280;46263;44.726;10.396;2023-07-30T07:14:28;100201.63;;;28.52;58.40
60417;BME280;46263;44.726;10.396;2023-07-30T07:16:54;100209.84;;;28.59;57.75
60417;BME280;46263;44.726;10.396;2023-07-30T07:19:23;100220.25;;;28.66;57.59
60417;BME280;46263;44.726;10.396;2023-07-30T07:21:49;100215.06;;;28.63;57.37
60417;BME280;46263;44.726;10.396;2023-07-30T07:24:15;100206.69;;;28.69;56.88
60417;BME280;46263;44.726;10.396;2023-07-30T07:26:40;100211.63;;;28.66;56.89
60417;BME280;46263;44.726;10.396;2023-07-30T07:29:06;100208.16;;;28.70;57.42
60417;BME280;46263;44.726;10.396;2023-07-30T07:31:31;100202.72;;;28.60;56.73
60417;BME280;46263;44.726;10.396;2023-07-30T07:33:57;100197.28;;;28.68;56.82
60417;BME280;46263;44.726;10.396;2023-07-30T07:36:22;100200.44;;;28.74;56.66
60417;BME280;46263;44.726;10.396;2023-07-30T07:38:48;100197.72;;;28.78;57.15
60417;BME280;46263;44.726;10.396;2023-07-30T07:41:14;100198.91;;;28.89;56.79
60417;BME280;46263;44.726;10.396;2023-07-30T07:43:46;100198.44;;;28.94;56.88
60417;BME280;46263;44.726;10.396;2023-07-30T07:46:12;100195.56;;;28.94;57.26
60417;BME280;46263;44.726;10.396;2023-07-30T07:48:42;100204.84;;;28.93;56.67
60417;BME280;46263;44.726;10.396;2023-07-30T07:51:09;100208.75;;;28.99;56.34
60417;BME280;46263;44.726;10.396;2023-07-30T07:53:36;100202.97;;;28.99;55.91
60417;BME280;46263;44.726;10.396;2023-07-30T07:56:01;100200.50;;;29.09;55.30
60417;BME280;46263;44.726;10.396;2023-07-30T07:58:27;100201.97;;;29.10;55.25
60417;BME280;46263;44.726;10.396;2023-07-30T08:00:57;100207.81;;;29.12;56.01
60417;BME280;46263;44.726;10.396;2023-07-30T08:03:23;100205.69;;;29.12;55.04
60417;BME280;46263;44.726;10.396;2023-07-30T08:05:51;100209.47;;;29.17;55.00
60417;BME280;46263;44.726;10.396;2023-07-30T08:08:17;100205.28;;;29.20;54.68
60417;BME280;46263;44.726;10.396;2023-07-30T08:10:43;100203.72;;;29.17;55.03
60417;BME280;46263;44.726;10.396;2023-07-30T08:13:10;100216.81;;;29.20;54.77
60417;BME280;46263;44.726;10.396;2023-07-30T08:15:36;100214.16;;;29.26;55.29
60417;BME280;46263;44.726;10.396;2023-07-30T08:18:01;100202.91;;;29.32;54.53
60417;BME280;46263;44.726;10.396;2023-07-30T08:20:27;100204.22;;;29.29;53.95
60417;BME280;46263;44.726;10.396;2023-07-30T08:22:52;100209.97;;;29.29;54.22
60417;BME280;46263;44.726;10.396;2023-07-30T08:25:18;100210.06;;;29.31;54.26
60417;BME280;46263;44.726;10.396;2023-07-30T08:27:43;100210.22;;;29.35;54.25
60417;BME280;46263;44.726;10.396;2023-07-30T08:30:09;100205.78;;;29.32;53.73
60417;BME280;46263;44.726;10.396;2023-07-30T08:32:35;100217.22;;;29.30;53.92
60417;BME280;46263;44.726;10.396;2023-07-30T08:35:00;100204.31;;;29.31;54.20
60417;BME280;46263;44.726;10.396;2023-07-30T08:37:26;100210.78;;;29.31;54.70
60417;BME280;46263;44.726;10.396;2023-07-30T08:39:52;100206.41;;;29.30;53.62
60417;BME280;46263;44.726;10.396;2023-07-30T08:42:17;100203.47;;;29.28;53.50
60417;BME280;46263;44.726;10.396;2023-07-30T08:44:43;100204.56;;;29.37;53.50
60417;BME280;46263;44.726;10.396;2023-07-30T08:47:09;100212.19;;;29.30;53.63
60417;BME280;46263;44.726;10.396;2023-07-30T08:49:35;100204.13;;;29.44;54.04
60417;BME280;46263;44.726;10.396;2023-07-30T08:52:02;100205.03;;;29.49;53.65
60417;BME280;46263;44.726;10.396;2023-07-30T08:54:30;100208.16;;;29.55;54.09
60417;BME280;46263;44.726;10.396;2023-07-30T08:56:57;100202.47;;;29.57;53.45
60417;BME280;46263;44.726;10.396;2023-07-30T08:59:24;100193.50;;;29.49;53.16
60417;BME280;46263;44.726;10.396;2023-07-30T09:01:53;100195.88;;;29.54;53.62
60417;BME280;46263;44.726;10.396;2023-07-30T09:04:19;100198.28;;;29.60;53.39
60417;BME280;46263;44.726;10.396;2023-07-30T09:06:49;100200.75;;;29.67;53.31
60417;BME280;46263;44.726;10.396;2023-07-30T09:09:17;100198.00;;;29.71;53.46
60417;BME280;46263;44.726;10.396;2023-07-30T09:11:43;100203.19;;;29.75;53.89
60417;BME280;46263;44.726;10.396;2023-07-30T09:14:09;100191.66;;;29.75;53.75
60417;BME280;46263;44.726;10.396;2023-07-30T09:16:34;100185.47;;;29.82;54.33
60417;BME280;46263;44.726;10.396;2023-07-30T09:19:00;100189.75;;;29.81;53.28
60417;BME280;46263;44.726;10.396;2023-07-30T09:21:32;100190.56;;;29.84;53.91
60417;BME280;46263;44.726;10.396;2023-07-30T09:24:02;100187.75;;;29.86;54.26
60417;BME280;46263;44.726;10.396;2023-07-30T09:26:45;100183.59;;;29.91;53.97
60417;BME280;46263;44.726;10.396;2023-07-30T09:29:10;100176.56;;;29.94;54.65
60417;BME280;46263;44.726;10.396;2023-07-30T09:31:50;100171.59;;;29.96;54.89
60417;BME280;46263;44.726;10.396;2023-07-30T09:34:23;100169.69;;;30.02;55.49
60417;BME280;46263;44.726;10.396;2023-07-30T09:36:53;100168.94;;;30.02;54.65
60417;BME280;46263;44.726;10.396;2023-07-30T09:39:23;100172.69;;;30.06;53.32
60417;BME280;46263;44.726;10.396;2023-07-30T09:41:50;100171.16;;;30.03;52.50
60417;BME280;46263;44.726;10.396;2023-07-30T09:44:20;100172.66;;;30.04;53.04
60417;BME280;46263;44.726;10.396;2023-07-30T09:46:48;100169.81;;;30.06;52.79
60417;BME280;46263;44.726;10.396;2023-07-30T09:49:14;100174.19;;;30.07;53.13
60417;BME280;46263;44.726;10.396;2023-07-30T09:51:40;100177.81;;;30.08;52.70
60417;BME280;46263;44.726;10.396;2023-07-30T09:54:07;100163.91;;;30.02;52.68
60417;BME280;46263;44.726;10.396;2023-07-30T09:56:37;100162.72;;;30.09;52.51
60417;BME280;46263;44.726;10.396;2023-07-30T09:59:04;100165.41;;;30.03;51.85
60417;BME280;46263;44.726;10.396;2023-07-30T10:01:31;100159.84;;;30.09;51.54
60417;BME280;46263;44.726;10.396;2023-07-30T10:03:57;100155.63;;;30.12;52.17
60417;BME280;46263;44.726;10.396;2023-07-30T10:06:29;100152.06;;;30.14;53.16
60417;BME280;46263;44.726;10.396;2023-07-30T10:08:59;100159.63;;;30.23;53.44
60417;BME280;46263;44.726;10.396;2023-07-30T10:11:26;100159.09;;;30.28;54.67
60417;BME280;46263;44.726;10.396;2023-07-30T10:13:53;100163.63;;;30.14;53.17
60417;BME280;46263;44.726;10.396;2023-07-30T10:16:25;100160.25;;;30.21;53.51
60417;BME280;46263;44.726;10.396;2023-07-30T10:18:55;100153.25;;;30.26;53.29
60417;BME280;46263;44.726;10.396;2023-07-30T10:21:23;100149.97;;;30.36;53.35
60417;BME280;46263;44.726;10.396;2023-07-30T10:24:00;100141.31;;;30.36;52.73
60417;BME280;46263;44.726;10.396;2023-07-30T10:26:27;100143.75;;;30.43;53.81
60417;BME280;46263;44.726;10.396;2023-07-30T10:29:20;100145.53;;;30.52;52.98
60417;BME280;46263;44.726;10.396;2023-07-30T10:31:55;100145.06;;;30.60;52.04
60417;BME280;46263;44.726;10.396;2023-07-30T10:34:22;100141.44;;;30.59;52.61
60417;BME280;46263;44.726;10.396;2023-07-30T10:36:50;100141.66;;;30.65;52.00
60417;BME280;46263;44.726;10.396;2023-07-30T10:41:48;100150.50;;;30.71;54.45
60417;BME280;46263;44.726;10.396;2023-07-30T10:44:18;100153.06;;;30.82;54.48
60417;BME280;46263;44.726;10.396;2023-07-30T10:46:44;100143.22;;;30.89;54.61
60417;BME280;46263;44.726;10.396;2023-07-30T10:49:10;100138.22;;;30.92;55.18
60417;BME280;46263;44.726;10.396;2023-07-30T10:51:37;100146.41;;;30.99;54.92
60417;BME280;46263;44.726;10.396;2023-07-30T10:54:05;100141.47;;;31.02;53.36
60417;BME280;46263;44.726;10.396;2023-07-30T10:56:34;100154.56;;;31.05;53.00
60417;BME280;46263;44.726;10.396;2023-07-30T10:59:03;100140.31;;;31.11;52.25
60417;BME280;46263;44.726;10.396;2023-07-30T11:01:29;100134.66;;;31.15;52.04
60417;BME280;46263;44.726;10.396;2023-07-30T11:03:54;100131.91;;;31.19;52.84
60417;BME280;46263;44.726;10.396;2023-07-30T11:06:24;100126.19;;;31.21;51.23
60417;BME280;46263;44.726;10.396;2023-07-30T11:08:50;100123.28;;;31.21;50.40
60417;BME280;46263;44.726;10.396;2023-07-30T11:11:15;100118.94;;;31.20;50.59
60417;BME280;46263;44.726;10.396;2023-07-30T11:13:43;100117.66;;;31.25;50.96
60417;BME280;46263;44.726;10.396;2023-07-30T11:16:09;100114.81;;;31.27;50.49
60417;BME280;46263;44.726;10.396;2023-07-30T11:18:36;100108.38;;;31.28;50.18
60417;BME280;46263;44.726;10.396;2023-07-30T11:21:06;100109.84;;;31.29;50.42
60417;BME280;46263;44.726;10.396;2023-07-30T11:23:35;100108.56;;;31.34;51.59
60417;BME280;46263;44.726;10.396;2023-07-30T11:26:02;100123.94;;;31.41;50.64
60417;BME280;46263;44.726;10.396;2023-07-30T11:28:33;100113.78;;;31.40;50.29
60417;BME280;46263;44.726;10.396;2023-07-30T11:31:00;100109.47;;;31.41;50.85
60417;BME280;46263;44.726;10.396;2023-07-30T11:33:27;100113.78;;;31.40;51.06
60417;BME280;46263;44.726;10.396;2023-07-30T11:35:54;100115.50;;;31.49;51.74
60417;BME280;46263;44.726;10.396;2023-07-30T11:38:24;100117.03;;;31.52;51.55
60417;BME280;46263;44.726;10.396;2023-07-30T11:40:51;100115.78;;;31.57;51.98
60417;BME280;46263;44.726;10.396;2023-07-30T11:43:17;100117.97;;;31.58;51.22
60417;BME280;46263;44.726;10.396;2023-07-30T11:45:42;100113.75;;;31.61;51.81
60417;BME280;46263;44.726;10.396;2023-07-30T11:48:09;100118.91;;;31.64;50.86
60417;BME280;46263;44.726;10.396;2023-07-30T11:51:02;100111.03;;;31.67;50.19
60417;BME280;46263;44.726;10.396;2023-07-30T11:53:53;100112.03;;;31.77;51.11
60417;BME280;46263;44.726;10.396;2023-07-30T11:56:27;100115.16;;;31.85;51.76
60417;BME280;46263;44.726;10.396;2023-07-30T11:58:58;100110.31;;;31.92;50.82
60417;BME280;46263;44.726;10.396;2023-07-30T12:01:29;100102.41;;;31.94;51.54
60417;BME280;46263;44.726;10.396;2023-07-30T12:03:58;100105.22;;;31.90;49.70
60417;BME280;46263;44.726;10.396;2023-07-30T12:06:40;100094.91;;;31.85;48.53
60417;BME280;46263;44.726;10.396;2023-07-30T12:09:15;100091.56;;;31.95;49.55
60417;BME280;46263;44.726;10.396;2023-07-30T12:14:14;100092.53;;;32.03;50.69
60417;BME280;46263;44.726;10.396;2023-07-30T12:16:39;100084.09;;;32.11;51.51
60417;BME280;46263;44.726;10.396;2023-07-30T12:19:05;100088.56;;;32.16;50.63
60417;BME280;46263;44.726;10.396;2023-07-30T12:21:30;100077.13;;;32.20;50.31
60417;BME280;46263;44.726;10.396;2023-07-30T12:23:56;100076.44;;;32.22;50.74
60417;BME280;46263;44.726;10.396;2023-07-30T12:26:21;100073.66;;;32.26;50.21
60417;BME280;46263;44.726;10.396;2023-07-30T12:28:47;100066.59;;;32.33;50.86
60417;BME280;46263;44.726;10.396;2023-07-30T12:31:12;100072.47;;;32.37;51.47
60417;BME280;46263;44.726;10.396;2023-07-30T12:33:38;100070.41;;;32.41;50.83
60417;BME280;46263;44.726;10.396;2023-07-30T12:36:04;100063.84;;;32.39;48.39
60417;BME280;46263;44.726;10.396;2023-07-30T12:38:29;100066.16;;;32.44;48.22
60417;BME280;46263;44.726;10.396;2023-07-30T12:40:55;100069.06;;;32.44;47.85
60417;BME280;46263;44.726;10.396;2023-07-30T12:43:20;100072.22;;;32.54;50.21